createdAt,value
2022-08-26T00:00:38.719Z,11.80
2022-08-26T00:01:38.702Z,12.20
2022-08-26T00:02:38.771Z,11.50
2022-08-26T00:03:38.709Z,14.50
2022-08-26T00:04:38.645Z,11.70
2022-08-26T00:05:38.629Z,14.00
2022-08-26T00:06:38.616Z,10.60
2022-08-26T00:07:38.595Z,12.30
2022-08-26T00:08:38.578Z,12.00
2022-08-26T00:09:40.077Z,12.20
2022-08-26T00:10:38.545Z,12.60
2022-08-26T00:11:38.527Z,11.90
2022-08-26T00:12:38.513Z,12.00
2022-08-26T00:13:38.494Z,10.70
2022-08-26T00:14:38.475Z,11.70
2022-08-26T00:15:38.457Z,12.40
2022-08-26T00:16:41.083Z,12.00
2022-08-26T00:17:40.265Z,11.50
2022-08-26T00:18:38.663Z,11.80
2022-08-26T00:19:38.390Z,11.80
2022-08-26T00:20:38.373Z,12.10
2022-08-26T00:21:38.356Z,11.00
2022-08-26T00:22:38.337Z,11.10
2022-08-26T00:23:38.324Z,11.00
2022-08-26T00:24:38.304Z,10.80
2022-08-26T00:25:38.287Z,11.20
2022-08-26T00:26:38.272Z,11.30
2022-08-26T00:27:38.252Z,11.20
2022-08-26T00:28:38.233Z,11.20
2022-08-26T00:29:38.222Z,11.50
2022-08-26T00:30:38.203Z,12.10
2022-08-26T00:31:38.204Z,11.40
2022-08-26T00:32:38.167Z,11.90
2022-08-26T00:33:38.154Z,11.50
2022-08-26T00:34:38.136Z,11.20
2022-08-26T00:35:38.115Z,11.70
2022-08-26T00:36:38.094Z,11.10
2022-08-26T00:37:38.083Z,10.70
2022-08-26T00:38:38.063Z,11.90
2022-08-26T00:39:38.046Z,11.50
2022-08-26T00:40:38.028Z,14.90
2022-08-26T00:41:38.015Z,11.40
2022-08-26T00:42:37.995Z,10.90
2022-08-26T00:43:46.236Z,11.60
2022-08-26T00:44:37.958Z,12.30
2022-08-26T00:45:37.992Z,12.20
2022-08-26T00:46:37.923Z,11.40
2022-08-26T00:47:37.908Z,11.50
2022-08-26T00:48:37.890Z,12.30
2022-08-26T00:49:37.875Z,11.80
2022-08-26T00:50:37.855Z,11.00
2022-08-26T00:51:37.838Z,12.00
2022-08-26T00:52:37.821Z,12.20
2022-08-26T00:53:37.807Z,11.50
2022-08-26T00:54:37.785Z,10.80
2022-08-26T00:55:38.318Z,12.00
2022-08-26T00:56:37.749Z,14.50
2022-08-26T00:57:37.735Z,13.60
2022-08-26T00:58:37.716Z,11.40
2022-08-26T00:59:38.941Z,13.20
2022-08-26T01:00:37.727Z,14.00
2022-08-26T01:01:37.665Z,12.10
2022-08-26T01:02:37.700Z,13.00
2022-08-26T01:03:37.629Z,12.60
2022-08-26T01:04:37.612Z,12.30
2022-08-26T01:05:37.595Z,11.50
2022-08-26T01:06:37.578Z,11.40
2022-08-26T01:07:37.565Z,11.90
2022-08-26T01:08:37.552Z,14.50
2022-08-26T01:09:37.525Z,11.90
2022-08-26T01:10:37.507Z,11.80
2022-08-26T01:11:37.491Z,11.20
2022-08-26T01:12:37.473Z,12.60
2022-08-26T01:13:37.456Z,11.50
2022-08-26T01:14:37.440Z,12.90
2022-08-26T01:15:37.424Z,13.30
2022-08-26T01:16:37.454Z,12.50
2022-08-26T01:17:37.387Z,12.00
2022-08-26T01:18:37.373Z,12.30
2022-08-26T01:19:37.351Z,11.60
2022-08-26T01:20:37.333Z,11.70
2022-08-26T01:21:40.549Z,12.80
2022-08-26T01:22:37.301Z,13.00
2022-08-26T01:23:37.281Z,12.90
2022-08-26T01:24:37.263Z,11.80
2022-08-26T01:25:37.246Z,12.20
2022-08-26T01:26:37.232Z,11.70
2022-08-26T01:27:37.213Z,11.70
2022-08-26T01:28:37.193Z,13.00
2022-08-26T01:29:37.178Z,13.30
2022-08-26T01:30:37.211Z,12.00
2022-08-26T01:31:37.240Z,12.80
2022-08-26T01:32:38.967Z,15.10
2022-08-26T01:33:42.219Z,12.20
2022-08-26T01:34:37.091Z,13.10
2022-08-26T01:35:37.072Z,13.10
2022-08-26T01:36:37.052Z,11.60
2022-08-26T01:37:37.036Z,14.30
2022-08-26T01:38:37.022Z,13.60
2022-08-26T01:39:36.999Z,14.60
2022-08-26T01:40:36.982Z,15.70
2022-08-26T01:41:36.967Z,14.50
2022-08-26T01:42:36.947Z,14.30
2022-08-26T01:43:36.928Z,14.00
2022-08-26T01:44:36.918Z,13.90
2022-08-26T01:45:36.934Z,14.30
2022-08-26T01:46:36.876Z,14.60
2022-08-26T01:47:36.861Z,18.40
2022-08-26T01:48:36.840Z,14.80
2022-08-26T01:49:36.823Z,14.40
2022-08-26T01:50:36.808Z,14.20
2022-08-26T01:51:36.789Z,14.10
2022-08-26T01:52:36.768Z,14.30
2022-08-26T01:53:36.751Z,14.20
2022-08-26T01:54:36.733Z,17.10
2022-08-26T01:55:36.714Z,14.80
2022-08-26T01:56:36.769Z,14.50
2022-08-26T01:57:36.680Z,14.90
2022-08-26T01:58:36.662Z,14.60
2022-08-26T01:59:36.649Z,14.30
2022-08-26T02:00:36.697Z,15.00
2022-08-26T02:01:36.608Z,14.60
2022-08-26T02:02:36.594Z,14.90
2022-08-26T02:03:38.710Z,14.40
2022-08-26T02:04:36.682Z,15.00
2022-08-26T02:05:36.538Z,14.00
2022-08-26T02:06:36.519Z,13.90
2022-08-26T02:07:36.503Z,14.70
2022-08-26T02:08:36.483Z,14.50
2022-08-26T02:09:38.443Z,14.00
2022-08-26T02:10:36.455Z,14.50
2022-08-26T02:11:36.859Z,13.80
2022-08-26T02:12:36.411Z,14.70
2022-08-26T02:13:36.399Z,13.20
2022-08-26T02:14:36.382Z,14.80
2022-08-26T02:15:36.360Z,14.50
2022-08-26T02:16:36.439Z,13.50
2022-08-26T02:17:36.325Z,15.30
2022-08-26T02:18:36.305Z,14.50
2022-08-26T02:19:36.289Z,13.80
2022-08-26T02:20:36.274Z,14.60
2022-08-26T02:21:36.255Z,14.80
2022-08-26T02:22:36.236Z,13.70
2022-08-26T02:23:36.218Z,13.90
2022-08-26T02:24:36.199Z,14.20
2022-08-26T02:25:36.188Z,15.50
2022-08-26T02:26:36.164Z,15.00
2022-08-26T02:27:36.150Z,14.40
2022-08-26T02:28:36.129Z,15.60
2022-08-26T02:29:36.113Z,14.80
2022-08-26T02:30:36.094Z,15.20
2022-08-26T02:31:36.127Z,13.90
2022-08-26T02:32:36.058Z,14.90
2022-08-26T02:33:36.041Z,14.40
2022-08-26T02:34:36.023Z,13.90
2022-08-26T02:35:36.006Z,13.90
2022-08-26T02:36:35.986Z,14.00
2022-08-26T02:37:35.971Z,14.60
2022-08-26T02:38:35.950Z,14.00
2022-08-26T02:39:35.934Z,13.40
2022-08-26T02:40:36.018Z,14.50
2022-08-26T02:41:35.897Z,13.60
2022-08-26T02:42:35.879Z,14.10
2022-08-26T02:43:35.861Z,14.80
2022-08-26T02:44:35.844Z,14.20
2022-08-26T02:45:35.831Z,13.80
2022-08-26T02:46:35.849Z,14.10
2022-08-26T02:47:35.792Z,13.50
2022-08-26T02:48:35.769Z,14.30
2022-08-26T02:49:35.754Z,15.30
2022-08-26T02:50:35.736Z,14.20
2022-08-26T02:51:35.716Z,15.20
2022-08-26T02:52:35.697Z,13.60
2022-08-26T02:53:35.748Z,13.70
2022-08-26T02:54:35.667Z,12.70
2022-08-26T02:55:35.648Z,14.00
2022-08-26T02:56:35.625Z,17.40
2022-08-26T02:57:35.611Z,14.00
2022-08-26T02:58:35.595Z,14.20
2022-08-26T02:59:35.610Z,14.60
2022-08-26T03:00:35.576Z,15.50
2022-08-26T03:01:35.563Z,14.10
2022-08-26T03:02:35.521Z,15.00
2022-08-26T03:03:35.503Z,13.80
2022-08-26T03:04:35.483Z,13.50
2022-08-26T03:05:35.466Z,13.50
2022-08-26T03:06:35.450Z,13.80
2022-08-26T03:07:35.452Z,14.00
2022-08-26T03:08:35.410Z,15.20
2022-08-26T03:09:35.393Z,14.70
2022-08-26T03:10:35.382Z,13.70
2022-08-26T03:11:35.356Z,15.20
2022-08-26T03:12:35.337Z,15.50
2022-08-26T03:13:35.320Z,16.00
2022-08-26T03:14:35.302Z,14.70
2022-08-26T03:15:35.287Z,14.00
2022-08-26T03:16:35.330Z,14.90
2022-08-26T03:17:35.251Z,14.30
2022-08-26T03:18:35.228Z,14.60
2022-08-26T03:19:35.212Z,14.80
2022-08-26T03:20:35.199Z,14.90
2022-08-26T03:21:35.175Z,15.60
2022-08-26T03:22:35.159Z,14.20
2022-08-26T03:23:35.141Z,15.00
2022-08-26T03:24:35.120Z,15.40
2022-08-26T03:25:35.113Z,14.60
2022-08-26T03:26:35.083Z,16.60
2022-08-26T03:27:35.066Z,16.20
2022-08-26T03:28:35.045Z,17.10
2022-08-26T03:29:35.030Z,16.10
2022-08-26T03:30:35.016Z,17.20
2022-08-26T03:31:35.071Z,16.30
2022-08-26T03:32:34.975Z,16.70
2022-08-26T03:33:34.959Z,15.50
2022-08-26T03:34:34.937Z,15.40
2022-08-26T03:35:34.919Z,15.80
2022-08-26T03:36:35.074Z,16.40
2022-08-26T03:37:34.885Z,18.20
2022-08-26T03:38:34.865Z,17.60
2022-08-26T03:39:34.848Z,18.30
2022-08-26T03:40:34.862Z,18.50
2022-08-26T03:41:34.816Z,19.10
2022-08-26T03:42:34.794Z,17.40
2022-08-26T03:43:34.782Z,18.70
2022-08-26T03:44:34.755Z,18.70
2022-08-26T03:45:34.737Z,19.20
2022-08-26T03:46:34.759Z,20.00
2022-08-26T03:47:34.698Z,19.10
2022-08-26T03:48:34.689Z,20.50
2022-08-26T03:49:34.663Z,21.60
2022-08-26T03:50:35.678Z,20.50
2022-08-26T03:51:34.623Z,20.00
2022-08-26T03:52:34.609Z,23.70
2022-08-26T03:53:34.589Z,23.10
2022-08-26T03:54:34.572Z,21.70
2022-08-26T03:55:34.555Z,21.80
2022-08-26T03:56:34.535Z,21.30
2022-08-26T03:57:34.517Z,22.10
2022-08-26T03:58:34.498Z,21.60
2022-08-26T03:59:34.478Z,22.30
2022-08-26T04:00:34.519Z,20.90
2022-08-26T04:01:34.495Z,20.00
2022-08-26T04:02:34.494Z,21.90
2022-08-26T04:03:34.406Z,22.10
2022-08-26T04:04:34.386Z,21.00
2022-08-26T04:05:34.372Z,21.50
2022-08-26T04:06:34.348Z,21.40
2022-08-26T04:07:34.333Z,21.60
2022-08-26T04:08:34.314Z,20.30
2022-08-26T04:09:35.253Z,21.40
2022-08-26T04:10:34.278Z,21.20
2022-08-26T04:11:34.629Z,22.90
2022-08-26T04:12:34.243Z,23.30
2022-08-26T04:13:34.224Z,25.70
2022-08-26T04:14:34.209Z,24.40
2022-08-26T04:15:34.187Z,25.10
2022-08-26T04:16:34.263Z,24.30
2022-08-26T04:17:34.149Z,26.20
2022-08-26T04:18:37.246Z,26.10
2022-08-26T04:19:34.111Z,27.00
2022-08-26T04:20:34.094Z,27.10
2022-08-26T04:21:34.074Z,27.10
2022-08-26T04:22:34.059Z,26.80
2022-08-26T04:23:34.040Z,26.30
2022-08-26T04:24:34.019Z,29.70
2022-08-26T04:25:34.001Z,27.60
2022-08-26T04:26:33.982Z,28.20
2022-08-26T04:27:33.961Z,31.10
2022-08-26T04:28:33.945Z,30.40
2022-08-26T04:29:33.925Z,33.20
2022-08-26T04:30:33.907Z,33.20
2022-08-26T04:31:33.939Z,35.20
2022-08-26T04:32:33.870Z,34.50
2022-08-26T04:33:33.857Z,35.20
2022-08-26T04:34:33.836Z,36.90
2022-08-26T04:35:33.815Z,37.30
2022-08-26T04:36:33.797Z,36.60
2022-08-26T04:37:33.779Z,38.90
2022-08-26T04:38:33.763Z,40.60
2022-08-26T04:39:33.744Z,38.40
2022-08-26T04:40:33.765Z,39.70
2022-08-26T04:41:33.706Z,39.60
2022-08-26T04:42:33.688Z,41.80
2022-08-26T04:43:33.666Z,40.90
2022-08-26T04:44:33.650Z,41.70
2022-08-26T04:45:33.629Z,42.30
2022-08-26T04:46:33.657Z,43.40
2022-08-26T04:47:33.591Z,43.20
2022-08-26T04:48:33.574Z,42.50
2022-08-26T04:49:35.441Z,46.60
2022-08-26T04:50:33.538Z,45.80
2022-08-26T04:51:33.516Z,47.20
2022-08-26T04:52:33.501Z,46.60
2022-08-26T04:53:33.484Z,47.10
2022-08-26T04:54:33.464Z,47.70
2022-08-26T04:55:39.760Z,47.40
2022-08-26T04:56:33.428Z,48.80
2022-08-26T04:57:33.412Z,49.40
2022-08-26T04:58:33.386Z,50.40
2022-08-26T04:59:38.465Z,51.80
2022-08-26T05:00:33.354Z,51.40
2022-08-26T05:01:33.428Z,50.70
2022-08-26T05:02:33.312Z,51.40
2022-08-26T05:03:33.293Z,51.70
2022-08-26T05:04:33.276Z,54.30
2022-08-26T05:05:33.256Z,52.00
2022-08-26T05:06:37.092Z,54.50
2022-08-26T05:07:33.217Z,54.90
2022-08-26T05:08:33.211Z,59.30
2022-08-26T05:09:33.184Z,57.70
2022-08-26T05:10:33.164Z,57.70
2022-08-26T05:11:33.146Z,59.60
2022-08-26T05:12:33.136Z,59.30
2022-08-26T05:13:33.111Z,58.30
2022-08-26T05:14:33.091Z,58.90
2022-08-26T05:15:33.126Z,59.00
2022-08-26T05:16:33.053Z,59.90
2022-08-26T05:17:33.034Z,63.40
2022-08-26T05:18:33.015Z,63.30
2022-08-26T05:19:32.993Z,63.10
2022-08-26T05:20:32.976Z,61.80
2022-08-26T05:21:32.957Z,63.90
2022-08-26T05:22:32.941Z,63.60
2022-08-26T05:23:32.924Z,65.70
2022-08-26T05:24:32.901Z,64.80
2022-08-26T05:25:32.883Z,67.10
2022-08-26T05:26:32.866Z,67.40
2022-08-26T05:27:32.890Z,65.20
2022-08-26T05:28:32.826Z,68.00
2022-08-26T05:29:32.807Z,66.00
2022-08-26T05:30:32.788Z,71.10
2022-08-26T05:31:32.793Z,68.50
2022-08-26T05:32:32.753Z,68.90
2022-08-26T05:33:32.733Z,68.90
2022-08-26T05:34:32.726Z,69.60
2022-08-26T05:35:32.695Z,71.40
2022-08-26T05:36:32.683Z,74.70
2022-08-26T05:37:32.658Z,76.40
2022-08-26T05:38:32.641Z,79.10
2022-08-26T05:39:32.622Z,77.20
2022-08-26T05:40:32.679Z,80.50
2022-08-26T05:41:34.172Z,81.60
2022-08-26T05:42:32.567Z,83.60
2022-08-26T05:43:32.545Z,83.40
2022-08-26T05:44:35.893Z,84.90
2022-08-26T05:45:32.512Z,85.80
2022-08-26T05:46:32.519Z,84.00
2022-08-26T05:47:32.469Z,88.10
2022-08-26T05:48:32.453Z,84.80
2022-08-26T05:49:32.433Z,85.20
2022-08-26T05:50:32.416Z,83.80
2022-08-26T05:51:32.394Z,86.60
2022-08-26T05:52:32.387Z,85.40
2022-08-26T05:53:32.357Z,85.20
2022-08-26T05:54:32.342Z,82.10
2022-08-26T05:55:32.319Z,80.50
2022-08-26T05:56:32.306Z,81.10
2022-08-26T05:57:32.282Z,79.90
2022-08-26T05:58:32.269Z,84.10
2022-08-26T05:59:32.243Z,81.40
2022-08-26T06:00:32.253Z,81.00
2022-08-26T06:01:32.242Z,80.60
2022-08-26T06:02:32.257Z,82.70
2022-08-26T06:03:32.173Z,81.90
2022-08-26T06:04:32.153Z,77.80
2022-08-26T06:05:35.368Z,79.30
2022-08-26T06:06:32.112Z,85.00
2022-08-26T06:07:32.094Z,82.30
2022-08-26T06:08:32.080Z,83.80
2022-08-26T06:09:32.061Z,79.70
2022-08-26T06:10:33.027Z,81.10
2022-08-26T06:11:32.016Z,81.00
2022-08-26T06:12:31.999Z,78.70
2022-08-26T06:13:32.183Z,81.70
2022-08-26T06:14:31.962Z,81.40
2022-08-26T06:15:31.966Z,81.40
2022-08-26T06:16:31.924Z,77.40
2022-08-26T06:17:31.905Z,80.50
2022-08-26T06:18:31.886Z,78.90
2022-08-26T06:19:32.932Z,81.20
2022-08-26T06:20:31.853Z,79.60
2022-08-26T06:21:31.827Z,83.70
2022-08-26T06:22:31.811Z,81.70
2022-08-26T06:23:31.797Z,79.60
2022-08-26T06:24:31.775Z,78.90
2022-08-26T06:25:31.755Z,80.50
2022-08-26T06:26:31.737Z,79.80
2022-08-26T06:27:32.923Z,78.50
2022-08-26T06:28:31.698Z,79.20
2022-08-26T06:29:31.678Z,77.60
2022-08-26T06:30:31.664Z,77.80
2022-08-26T06:31:31.658Z,80.00
2022-08-26T06:32:31.631Z,78.10
2022-08-26T06:33:31.606Z,76.70
2022-08-26T06:34:31.585Z,78.50
2022-08-26T06:35:31.568Z,76.50
2022-08-26T06:36:31.554Z,74.70
2022-08-26T06:37:31.528Z,74.90
2022-08-26T06:38:31.510Z,74.80
2022-08-26T06:39:31.772Z,75.20
2022-08-26T06:40:31.505Z,74.20
2022-08-26T06:41:31.459Z,74.30
2022-08-26T06:42:31.434Z,73.60
2022-08-26T06:43:31.418Z,73.00
2022-08-26T06:44:31.398Z,74.70
2022-08-26T06:45:31.379Z,73.50
2022-08-26T06:46:31.433Z,74.40
2022-08-26T06:47:31.340Z,72.70
2022-08-26T06:48:31.326Z,72.30
2022-08-26T06:49:31.302Z,73.70
2022-08-26T06:50:31.286Z,74.70
2022-08-26T06:51:31.263Z,73.30
2022-08-26T06:52:31.246Z,74.50
2022-08-26T06:53:31.226Z,75.40
2022-08-26T06:54:31.214Z,73.10
2022-08-26T06:55:31.190Z,71.60
2022-08-26T06:56:31.174Z,71.30
2022-08-26T06:57:31.702Z,70.50
2022-08-26T06:58:31.138Z,71.20
2022-08-26T06:59:31.127Z,73.80
2022-08-26T07:00:31.096Z,72.60
2022-08-26T07:01:31.153Z,72.60
2022-08-26T07:02:31.101Z,69.10
2022-08-26T07:03:31.044Z,71.00
2022-08-26T07:04:31.030Z,71.70
2022-08-26T07:05:31.001Z,73.20
2022-08-26T07:06:30.987Z,72.70
2022-08-26T07:07:30.960Z,69.20
2022-08-26T07:08:30.956Z,71.00
2022-08-26T07:09:30.925Z,71.50
2022-08-26T07:10:30.906Z,69.30
2022-08-26T07:11:30.886Z,71.20
2022-08-26T07:12:30.875Z,71.20
2022-08-26T07:13:31.036Z,69.50
2022-08-26T07:14:30.840Z,70.50
2022-08-26T07:15:31.446Z,70.00
2022-08-26T07:16:30.795Z,71.00
2022-08-26T07:17:30.778Z,74.40
2022-08-26T07:18:30.762Z,72.20
2022-08-26T07:19:31.769Z,67.40
2022-08-26T07:20:30.720Z,68.10
2022-08-26T07:21:30.702Z,67.20
2022-08-26T07:22:30.684Z,66.10
2022-08-26T07:23:30.662Z,68.10
2022-08-26T07:24:30.646Z,66.70
2022-08-26T07:25:30.630Z,65.60
2022-08-26T07:26:30.619Z,66.80
2022-08-26T07:27:30.588Z,68.20
2022-08-26T07:28:30.574Z,67.00
2022-08-26T07:29:30.552Z,68.90
2022-08-26T07:30:30.539Z,68.30
2022-08-26T07:31:33.617Z,68.10
2022-08-26T07:32:30.503Z,68.10
2022-08-26T07:33:30.475Z,66.50
2022-08-26T07:34:30.458Z,68.60
2022-08-26T07:35:30.447Z,67.90
2022-08-26T07:36:30.426Z,67.50
2022-08-26T07:37:30.550Z,66.20
2022-08-26T07:38:30.384Z,67.40
2022-08-26T07:39:31.319Z,66.60
2022-08-26T07:40:30.422Z,65.40
2022-08-26T07:42:30.308Z,66.30
2022-08-26T07:43:30.290Z,64.40
2022-08-26T07:44:30.272Z,65.40
2022-08-26T07:45:30.261Z,64.80
2022-08-26T07:46:30.539Z,63.70
2022-08-26T07:47:30.215Z,64.20
2022-08-26T07:48:30.207Z,65.10
2022-08-26T07:49:30.260Z,63.20
2022-08-26T07:50:48.804Z,63.30
2022-08-26T07:51:30.141Z,60.60
2022-08-26T07:52:30.128Z,60.10
2022-08-26T07:53:30.109Z,60.20
2022-08-26T07:54:30.088Z,62.70
2022-08-26T07:55:30.072Z,61.60
2022-08-26T07:56:30.054Z,61.30
2022-08-26T07:57:30.033Z,60.60
2022-08-26T07:58:30.015Z,60.20
2022-08-26T07:59:29.998Z,59.40
2022-08-26T08:00:29.984Z,57.80
2022-08-26T08:01:29.963Z,60.30
2022-08-26T08:02:29.944Z,59.70
2022-08-26T08:03:29.919Z,60.20
2022-08-26T08:04:29.903Z,58.80
2022-08-26T08:05:33.324Z,60.50
2022-08-26T08:06:29.867Z,57.00
2022-08-26T08:07:45.018Z,57.70
2022-08-26T08:08:29.831Z,58.00
2022-08-26T08:09:29.814Z,57.80
2022-08-26T08:10:29.797Z,58.60
2022-08-26T08:11:29.776Z,57.50
2022-08-26T08:12:29.756Z,57.30
2022-08-26T08:13:29.737Z,56.00
2022-08-26T08:14:29.720Z,59.70
2022-08-26T08:15:29.705Z,55.90
2022-08-26T08:16:32.204Z,56.00
2022-08-26T08:17:29.681Z,57.60
2022-08-26T08:18:29.645Z,55.30
2022-08-26T08:19:36.765Z,55.20
2022-08-26T08:20:29.612Z,56.80
2022-08-26T08:21:29.596Z,56.30
2022-08-26T08:22:29.577Z,53.70
2022-08-26T08:23:29.559Z,57.10
2022-08-26T08:24:29.536Z,53.30
2022-08-26T08:25:29.528Z,54.90
2022-08-26T08:26:29.505Z,55.90
2022-08-26T08:27:29.503Z,56.90
2022-08-26T08:28:29.481Z,54.90
2022-08-26T08:29:29.451Z,54.50
2022-08-26T08:30:29.429Z,53.10
2022-08-26T08:31:56.058Z,55.70
2022-08-26T08:32:29.395Z,53.20
2022-08-26T08:33:29.385Z,54.10
2022-08-26T08:34:29.451Z,54.00
2022-08-26T08:35:29.337Z,55.00
2022-08-26T08:36:36.075Z,55.10
2022-08-26T08:37:29.305Z,55.30
2022-08-26T08:38:29.295Z,55.20
2022-08-26T08:39:29.264Z,52.70
2022-08-26T08:40:29.432Z,53.50
2022-08-26T08:41:29.243Z,51.80
2022-08-26T08:42:29.210Z,51.30
2022-08-26T08:43:29.195Z,51.90
2022-08-26T08:44:29.215Z,48.70
2022-08-26T08:45:31.269Z,51.90
2022-08-26T08:46:29.272Z,53.60
2022-08-26T08:47:29.117Z,53.00
2022-08-26T08:48:29.103Z,53.90
2022-08-26T08:49:29.262Z,51.20
2022-08-26T08:50:29.077Z,50.70
2022-08-26T08:51:29.061Z,54.70
2022-08-26T08:52:29.035Z,54.50
2022-08-26T08:53:29.013Z,54.20
2022-08-26T08:54:28.996Z,54.40
2022-08-26T08:55:28.978Z,55.20
2022-08-26T08:56:28.955Z,53.10
2022-08-26T08:57:28.941Z,53.70
2022-08-26T08:58:28.926Z,52.50
2022-08-26T08:59:28.909Z,53.00
2022-08-26T09:00:30.359Z,53.70
2022-08-26T09:01:28.922Z,52.20
2022-08-26T09:02:28.917Z,52.30
2022-08-26T09:03:28.832Z,53.60
2022-08-26T09:04:28.814Z,53.20
2022-08-26T09:05:28.798Z,52.10
2022-08-26T09:06:28.777Z,52.60
2022-08-26T09:07:29.812Z,54.00
2022-08-26T09:08:28.741Z,53.50
2022-08-26T09:09:28.724Z,52.30
2022-08-26T09:10:28.709Z,52.40
2022-08-26T09:11:28.688Z,52.00
2022-08-26T09:12:29.801Z,51.80
2022-08-26T09:13:28.653Z,49.50
2022-08-26T09:14:28.639Z,50.90
2022-08-26T09:15:30.438Z,50.60
2022-08-26T09:16:28.652Z,54.00
2022-08-26T09:17:28.581Z,49.90
2022-08-26T09:18:28.566Z,51.60
2022-08-26T09:19:28.544Z,51.70
2022-08-26T09:20:28.527Z,51.90
2022-08-26T09:21:28.509Z,50.80
2022-08-26T09:22:28.493Z,50.80
2022-08-26T09:23:28.479Z,49.60
2022-08-26T09:24:28.985Z,50.20
2022-08-26T09:25:28.440Z,52.10
2022-08-26T09:26:30.799Z,50.40
2022-08-26T09:27:28.408Z,50.00
2022-08-26T09:28:28.393Z,52.10
2022-08-26T09:29:28.374Z,51.00
2022-08-26T09:30:28.399Z,49.70
2022-08-26T09:31:28.394Z,52.30
2022-08-26T09:32:28.319Z,50.60
2022-08-26T09:33:28.298Z,51.10
2022-08-26T09:34:28.274Z,49.50
2022-08-26T09:35:28.257Z,48.70
2022-08-26T09:36:28.238Z,49.10
2022-08-26T09:37:28.222Z,48.30
2022-08-26T09:38:28.247Z,49.10
2022-08-26T09:39:28.191Z,48.80
2022-08-26T09:40:28.289Z,51.20
2022-08-26T09:41:28.148Z,51.80
2022-08-26T09:42:28.130Z,48.60
2022-08-26T09:43:28.111Z,51.20
2022-08-26T09:44:28.092Z,51.80
2022-08-26T09:45:28.077Z,52.60
2022-08-26T09:46:28.302Z,51.10
2022-08-26T09:47:28.041Z,50.40
2022-08-26T09:48:28.023Z,51.10
2022-08-26T09:49:29.844Z,50.40
2022-08-26T09:50:29.133Z,50.40
2022-08-26T09:51:27.969Z,49.80
2022-08-26T09:52:27.954Z,50.00
2022-08-26T09:53:28.810Z,47.60
2022-08-26T09:54:30.404Z,48.00
2022-08-26T09:55:27.897Z,48.90
2022-08-26T09:56:27.899Z,48.60
2022-08-26T09:57:27.864Z,50.10
2022-08-26T09:58:27.842Z,49.80
2022-08-26T09:59:27.828Z,49.70
2022-08-26T10:00:27.809Z,49.70
2022-08-26T10:01:30.016Z,50.70
2022-08-26T10:02:27.769Z,49.10
2022-08-26T10:03:27.754Z,50.10
2022-08-26T10:04:27.761Z,48.50
2022-08-26T10:05:27.719Z,47.50
2022-08-26T10:06:27.699Z,46.70
2022-08-26T10:07:27.682Z,48.20
2022-08-26T10:08:27.663Z,47.10
2022-08-26T10:09:28.176Z,45.60
2022-08-26T10:10:27.627Z,49.00
2022-08-26T10:11:27.611Z,49.50
2022-08-26T10:12:27.590Z,48.20
2022-08-26T10:13:28.068Z,47.50
2022-08-26T10:14:27.640Z,47.00
2022-08-26T10:15:27.549Z,47.10
2022-08-26T10:16:28.561Z,45.90
2022-08-26T10:17:27.502Z,44.40
2022-08-26T10:18:30.707Z,44.50
2022-08-26T10:19:41.811Z,46.20
2022-08-26T10:20:27.450Z,46.30
2022-08-26T10:21:27.435Z,47.60
2022-08-26T10:22:27.418Z,45.60
2022-08-26T10:23:27.472Z,45.70
2022-08-26T10:24:27.376Z,44.70
2022-08-26T10:25:27.365Z,45.70
2022-08-26T10:26:27.347Z,45.90
2022-08-26T10:27:27.323Z,44.90
2022-08-26T10:28:27.311Z,45.00
2022-08-26T10:29:27.293Z,43.10
2022-08-26T10:30:27.273Z,44.40
2022-08-26T10:31:27.458Z,43.40
2022-08-26T10:32:27.299Z,43.50
2022-08-26T10:33:27.220Z,44.00
2022-08-26T10:34:27.203Z,43.60
2022-08-26T10:35:27.189Z,43.00
2022-08-26T10:36:27.167Z,43.30
2022-08-26T10:37:27.151Z,43.10
2022-08-26T10:38:27.129Z,45.40
2022-08-26T10:39:27.114Z,43.10
2022-08-26T10:40:27.307Z,44.30
2022-08-26T10:41:27.080Z,45.00
2022-08-26T10:42:27.062Z,43.20
2022-08-26T10:43:27.046Z,43.10
2022-08-26T10:44:27.035Z,45.40
2022-08-26T10:45:27.020Z,41.40
2022-08-26T10:46:27.428Z,43.20
2022-08-26T10:47:26.975Z,41.90
2022-08-26T10:48:26.964Z,42.50
2022-08-26T10:49:26.938Z,40.20
2022-08-26T10:50:26.923Z,42.30
2022-08-26T10:51:26.906Z,43.20
2022-08-26T10:52:29.359Z,41.20
2022-08-26T10:53:26.868Z,42.90
2022-08-26T10:54:26.851Z,42.40
2022-08-26T10:55:26.832Z,44.80
2022-08-26T10:56:26.813Z,43.20
2022-08-26T10:57:26.797Z,43.30
2022-08-26T10:58:27.498Z,43.40
2022-08-26T10:59:28.919Z,41.40
2022-08-26T11:00:27.580Z,42.30
2022-08-26T11:01:26.829Z,42.10
2022-08-26T11:02:26.707Z,40.40
2022-08-26T11:03:26.693Z,42.80
2022-08-26T11:04:26.712Z,42.50
2022-08-26T11:05:26.665Z,40.80
2022-08-26T11:06:26.636Z,41.80
2022-08-26T11:07:26.621Z,42.70
2022-08-26T11:08:26.605Z,40.10
2022-08-26T11:09:26.587Z,40.00
2022-08-26T11:10:26.573Z,40.10
2022-08-26T11:11:26.553Z,39.80
2022-08-26T11:12:26.537Z,40.80
2022-08-26T11:13:26.527Z,41.10
2022-08-26T11:14:29.001Z,39.60
2022-08-26T11:15:26.496Z,40.60
2022-08-26T11:16:26.508Z,42.10
2022-08-26T11:17:26.449Z,41.60
2022-08-26T11:18:26.432Z,41.80
2022-08-26T11:19:36.177Z,40.10
2022-08-26T11:20:26.393Z,41.80
2022-08-26T11:21:26.378Z,39.60
2022-08-26T11:22:26.357Z,38.00
2022-08-26T11:23:26.343Z,38.00
2022-08-26T11:24:26.325Z,39.80
2022-08-26T11:25:30.090Z,38.60
2022-08-26T11:26:32.759Z,41.20
2022-08-26T11:27:26.272Z,40.10
2022-08-26T11:28:26.256Z,37.60
2022-08-26T11:29:26.241Z,37.30
2022-08-26T11:30:26.220Z,37.40
2022-08-26T11:31:26.265Z,37.40
2022-08-26T11:32:26.185Z,38.00
2022-08-26T11:33:26.166Z,37.70
2022-08-26T11:34:26.147Z,37.50
2022-08-26T11:35:26.129Z,36.50
2022-08-26T11:36:26.117Z,34.90
2022-08-26T11:37:26.096Z,35.50
2022-08-26T11:38:26.083Z,34.30
2022-08-26T11:39:26.061Z,32.80
2022-08-26T11:40:26.131Z,33.40
2022-08-26T11:41:26.028Z,32.50
2022-08-26T11:42:27.819Z,34.40
2022-08-26T11:43:26.001Z,35.60
2022-08-26T11:44:25.973Z,33.40
2022-08-26T11:45:26.054Z,31.80
2022-08-26T11:46:25.945Z,32.20
2022-08-26T11:47:25.925Z,33.60
2022-08-26T11:48:25.906Z,29.70
2022-08-26T11:49:25.899Z,30.30
2022-08-26T11:50:25.875Z,30.70
2022-08-26T11:51:25.858Z,29.30
2022-08-26T11:52:25.868Z,31.10
2022-08-26T11:53:26.068Z,31.60
2022-08-26T11:54:35.190Z,31.30
2022-08-26T11:55:25.787Z,32.00
2022-08-26T11:56:25.831Z,29.60
2022-08-26T11:57:25.752Z,29.90
2022-08-26T11:58:25.733Z,30.60
2022-08-26T11:59:25.739Z,32.30
2022-08-26T12:00:25.700Z,29.70
2022-08-26T12:01:25.683Z,28.20
2022-08-26T12:02:25.665Z,29.40
2022-08-26T12:03:25.741Z,28.90
2022-08-26T12:04:25.729Z,29.90
2022-08-26T12:05:25.622Z,29.90
2022-08-26T12:07:25.584Z,28.90
2022-08-26T12:08:27.775Z,28.20
2022-08-26T12:09:25.545Z,26.60
2022-08-26T12:10:25.530Z,27.70
2022-08-26T12:11:25.513Z,25.40
2022-08-26T12:12:25.495Z,25.90
2022-08-26T12:13:26.372Z,26.10
2022-08-26T12:14:25.458Z,24.30
2022-08-26T12:15:25.443Z,24.00
2022-08-26T12:16:25.558Z,23.00
2022-08-26T12:17:25.408Z,24.20
2022-08-26T12:18:29.629Z,24.40
2022-08-26T12:19:25.372Z,24.10
2022-08-26T12:20:25.360Z,24.50
2022-08-26T12:21:25.348Z,23.90
2022-08-26T12:22:25.332Z,23.00
2022-08-26T12:23:25.310Z,25.80
2022-08-26T12:24:25.290Z,23.50
2022-08-26T12:25:25.281Z,22.80
2022-08-26T12:26:25.258Z,22.60
2022-08-26T12:27:25.237Z,21.80
2022-08-26T12:28:25.222Z,22.60
2022-08-26T12:29:27.009Z,21.80
2022-08-26T12:30:26.176Z,22.10
2022-08-26T12:31:25.235Z,23.90
2022-08-26T12:32:25.161Z,24.10
2022-08-26T12:33:25.137Z,22.40
2022-08-26T12:34:25.124Z,21.10
2022-08-26T12:35:25.106Z,21.30
2022-08-26T12:36:25.087Z,20.60
2022-08-26T12:37:25.070Z,20.10
2022-08-26T12:38:25.056Z,23.10
2022-08-26T12:39:25.036Z,23.20
2022-08-26T12:40:25.124Z,22.70
2022-08-26T12:41:25.003Z,21.80
2022-08-26T12:42:24.989Z,24.00
2022-08-26T12:43:24.968Z,22.10
2022-08-26T12:44:24.954Z,22.70
2022-08-26T12:45:24.948Z,22.80
2022-08-26T12:46:24.921Z,24.10
2022-08-26T12:47:32.752Z,23.60
2022-08-26T12:48:24.887Z,22.30
2022-08-26T12:49:24.875Z,21.80
2022-08-26T12:50:24.854Z,20.00
2022-08-26T12:51:24.840Z,22.10
2022-08-26T12:52:24.819Z,24.80
2022-08-26T12:53:24.802Z,21.50
2022-08-26T12:54:24.793Z,22.10